createdAt,value
2019-05-02T06:50:54.595Z,50.20
2019-05-02T07:04:22.906Z,50.20
2019-05-02T07:07:31.395Z,49.80
2019-05-02T07:11:01.419Z,49.80
2019-05-02T08:02:30.954Z,49.60
2019-05-02T08:07:21.113Z,49.70
2019-05-02T08:39:41.696Z,47.10
2019-05-02T13:23:42.595Z,34.30
2019-05-02T14:57:37.235Z,34.30
2019-05-02T15:08:53.812Z,34.90
2019-05-02T15:38:52.591Z,34.60
2019-05-02T16:22:49.591Z,34.50
2019-05-02T16:26:08.725Z,33.90
2019-05-02T20:04:09.356Z,38.00
2019-05-02T20:42:13.960Z,38.70
2019-05-02T20:45:28.010Z,38.60
2019-05-02T20:48:23.769Z,38.70
2019-05-02T20:51:19.619Z,38.90
2019-05-02T20:54:09.087Z,38.80
2019-05-02T20:57:06.909Z,39.00
2019-05-02T21:00:28.723Z,39.00
2019-05-02T21:03:45.215Z,39.10
2019-05-02T21:07:06.515Z,39.20
2019-05-02T21:10:41.625Z,39.30
2019-05-02T21:14:12.685Z,39.30
2019-05-02T21:17:58.114Z,39.40
2019-05-02T21:20:12.960Z,39.50
2019-05-02T21:24:02.086Z,39.60
2019-05-02T21:27:11.563Z,39.60
2019-05-02T21:30:21.718Z,39.70
2019-05-02T21:33:42.540Z,39.60
2019-05-02T21:36:40.188Z,39.70
2019-05-02T21:39:27.921Z,39.80
2019-05-02T21:42:16.354Z,39.80
2019-05-02T21:45:10.470Z,39.90
2019-05-02T21:48:13.039Z,40.00
2019-05-02T21:51:04.397Z,40.00
2019-05-02T21:54:13.238Z,40.10
2019-05-02T21:57:16.150Z,40.00
2019-05-02T22:00:06.463Z,40.10
2019-05-02T22:03:05.400Z,40.10
2019-05-02T22:05:58.095Z,40.30
2019-05-02T22:08:43.089Z,40.30
2019-05-02T22:11:32.133Z,40.30
2019-05-02T22:14:18.843Z,40.40
2019-05-02T22:17:08.268Z,40.40
2019-05-02T22:20:02.432Z,40.40
2019-05-02T22:22:55.174Z,40.50
2019-05-02T22:25:39.591Z,40.40
2019-05-02T22:28:30.186Z,40.50
2019-05-02T22:31:26.702Z,40.50
2019-05-02T22:34:18.230Z,40.60
2019-05-02T22:37:12.479Z,40.50
2019-05-02T22:40:04.047Z,40.70
2019-05-02T22:42:52.361Z,40.80
2019-05-02T22:45:43.877Z,40.70
2019-05-02T22:48:31.869Z,40.80
2019-05-02T22:51:19.535Z,40.90
2019-05-02T22:54:23.332Z,40.90
2019-05-02T22:56:58.699Z,41.10
2019-05-02T22:59:46.319Z,41.00
2019-05-02T23:02:36.664Z,41.00
2019-05-02T23:05:32.116Z,41.00
2019-05-02T23:08:13.078Z,41.10
2019-05-02T23:11:06.327Z,41.00
2019-05-02T23:13:53.256Z,41.20
2019-05-02T23:16:42.677Z,41.30
2019-05-02T23:19:31.578Z,41.30
2019-05-02T23:22:18.680Z,41.40
2019-05-02T23:25:32.200Z,41.40
2019-05-02T23:28:24.232Z,41.50
2019-05-02T23:31:14.113Z,41.40
2019-05-02T23:34:07.300Z,41.50
2019-05-02T23:37:35.140Z,41.60
2019-05-02T23:40:19.998Z,41.80
2019-05-02T23:43:06.719Z,41.70
2019-05-02T23:45:55.935Z,41.80
2019-05-02T23:48:42.749Z,42.10
2019-05-02T23:51:32.048Z,42.10
2019-05-02T23:54:19.111Z,42.10
2019-05-02T23:57:07.298Z,42.20
2019-05-02T23:59:54.870Z,42.40
